createdAt,value
2023-12-21T10:37:29.482Z,2.50
2023-12-21T10:39:57.840Z,3.03
2023-12-21T10:42:25.181Z,1.90
2023-12-21T10:44:52.553Z,3.50
2023-12-21T10:47:21.245Z,2.78
2023-12-21T10:49:50.591Z,2.28
2023-12-21T10:52:18.245Z,2.95
2023-12-21T10:54:46.568Z,2.83
2023-12-21T10:57:14.209Z,2.70
2023-12-21T10:59:42.065Z,3.40
2023-12-21T11:02:15.376Z,2.35
2023-12-21T15:39:38.230Z,5.25
2023-12-21T15:42:05.560Z,4.90
2023-12-21T15:44:32.696Z,4.38
2023-12-21T15:46:59.885Z,4.75
2023-12-21T15:49:27.211Z,3.40
2023-12-21T15:51:54.675Z,2.88
2023-12-21T15:54:22.247Z,3.67
2023-12-21T15:56:49.468Z,2.33
2023-12-21T15:59:16.910Z,3.40
2023-12-21T16:01:44.076Z,3.17
2023-12-21T16:04:11.516Z,4.10
2023-12-21T16:06:38.899Z,3.85
2023-12-21T16:09:06.067Z,3.80
2023-12-21T16:11:33.250Z,5.28
2023-12-21T16:14:00.439Z,4.47
2023-12-21T16:16:27.651Z,3.80
2023-12-21T16:18:55.232Z,4.90
2023-12-21T16:21:22.474Z,4.03
2023-12-21T16:23:49.852Z,4.03
2023-12-21T16:26:20.296Z,3.88
2023-12-21T16:28:47.969Z,4.07
2023-12-21T16:31:15.395Z,4.55
2023-12-21T16:33:42.588Z,4.00
2023-12-21T16:36:10.703Z,4.35
2023-12-21T16:38:39.702Z,4.90
2023-12-21T16:41:08.498Z,5.63
2023-12-21T16:43:36.248Z,5.03
2023-12-21T16:46:04.983Z,4.15
2023-12-21T16:48:32.379Z,4.55
2023-12-21T16:50:59.530Z,4.70
2023-12-21T16:53:27.422Z,4.70
2023-12-21T16:55:54.969Z,4.70
2023-12-21T16:58:24.280Z,4.90
2023-12-21T17:00:52.107Z,6.25
2023-12-21T17:03:19.549Z,5.63
2023-12-21T17:05:47.027Z,5.38
2023-12-21T17:08:14.746Z,6.13
2023-12-21T17:10:42.308Z,4.43
2023-12-21T17:13:10.150Z,6.22
2023-12-21T17:15:37.451Z,5.45
2023-12-21T17:18:05.118Z,6.28
2023-12-21T17:20:34.473Z,4.55
2023-12-21T17:23:03.256Z,5.57
2023-12-21T17:25:30.632Z,6.47
2023-12-21T17:27:57.913Z,5.32
2023-12-21T17:30:26.519Z,4.82
2023-12-21T17:32:53.987Z,3.95
2023-12-21T17:35:21.560Z,5.53
2023-12-21T17:37:49.556Z,5.70
2023-12-21T17:40:17.424Z,4.95
2023-12-21T17:42:45.047Z,5.22
2023-12-21T17:45:12.618Z,4.47
2023-12-21T17:47:40.010Z,4.78
2023-12-21T17:50:07.955Z,4.22
2023-12-21T17:52:35.361Z,4.60
2023-12-21T17:55:03.110Z,3.80
2023-12-21T17:57:30.250Z,5.90
2023-12-21T17:59:57.465Z,5.13
2023-12-21T18:02:24.695Z,4.38
2023-12-21T18:04:53.155Z,4.32
2023-12-21T18:07:23.294Z,4.38
2023-12-21T18:09:52.507Z,4.80
2023-12-21T18:12:19.691Z,5.22
2023-12-21T18:14:46.957Z,4.57
2023-12-21T18:17:14.124Z,4.18
2023-12-21T18:19:41.342Z,5.35
2023-12-21T18:22:09.804Z,4.78
2023-12-21T18:24:39.522Z,5.28
2023-12-21T18:27:06.776Z,4.90
2023-12-21T18:29:33.946Z,5.10
2023-12-21T18:32:01.345Z,4.72
2023-12-21T18:34:28.803Z,5.03
2023-12-21T18:36:56.145Z,5.30
